RJSI METAR and TAF | Updated Today

RJSI METAR

Hanamaki Airport

Observation time: 46 min. ago

RJSI 200700Z 28006KT 220V330 9999 FEW050 BKN/// 24/09 Q1012

Need help? Read our tutorial on how to read METARs or read the parsed version below.

Hanamaki Airport (RJSI) METAR

  • Weather conditions on Fri, 20 May 2022 07:00:00 +0000 (46 min. ago):
  • Present conditions: Dry
  • Clouds: A few at 1524 meters; broken sky
  • Visibility: Greater than 10 km
  • Wind: 280 degrees at 6 knots
  • Temperature: 24 celsius
  • Dew point: 9 celsius
  • Pressure: 1012 millibars
  • Remarks: None


Useful to know...

RJSI TAF

Hanamaki Airport

TAF RJSI 200505Z 2006/2112 27008KT 9999 FEW040 BECMG 2009/2011 01004KT BECMG 2100/2103 19005KT
Observation time: 2:41 hr. ago
Need help? Read our tutorial on how to read TAFs or read the parsed version below.

Parsed version of TAF for Hanamaki Airport (RJSI)

  • From 20 May at 06:00 UTC, to day 21 of the month at 12:00 UTC
  • Clouds: A few at 1219 meters
  • Visibility: Greater than 10 km
  • Wind: 270 degrees at 8
  • Expected to arise soon, from 20 May at 09:00 UTC, to day 20 of the month at 11:00 UTC
  • Wind: 10 degrees at 4
  • Expected to arise soon, from 21 May at 00:00 UTC, to day 21 of the month at 03:00 UTC
  • Wind: 190 degrees at 5

Airports near RJSI

No airports found within 100nm radius.